createdAt,value
2017-09-15T00:00:21.946Z,16
2017-09-15T00:01:24.339Z,16
2017-09-15T00:02:26.729Z,16
2017-09-15T00:03:29.468Z,16
2017-09-15T00:04:32.198Z,16
2017-09-15T00:05:34.928Z,16
2017-09-15T00:06:37.318Z,16
2017-09-15T00:07:39.706Z,16.1
2017-09-15T00:08:42.098Z,16
2017-09-15T00:09:44.493Z,16
2017-09-15T00:10:46.878Z,16
2017-09-15T00:11:49.269Z,16
2017-09-15T00:12:51.657Z,16
2017-09-15T00:13:54.042Z,16
2017-09-15T00:14:56.438Z,16
2017-09-15T00:15:58.833Z,16
2017-09-15T00:17:01.219Z,16
2017-09-15T00:18:03.961Z,16
2017-09-15T00:19:06.349Z,16
2017-09-15T00:20:08.742Z,16
2017-09-15T00:21:11.135Z,16
2017-09-15T00:22:13.527Z,16
2017-09-15T00:23:15.909Z,16
2017-09-15T00:24:18.300Z,15.9
2017-09-15T00:25:20.694Z,15.9
2017-09-15T00:26:23.088Z,15.9
2017-09-15T00:27:25.474Z,15.9
2017-09-15T00:28:27.864Z,15.9
2017-09-15T00:29:30.263Z,15.9
2017-09-15T00:30:33.004Z,16
2017-09-15T00:31:35.736Z,16
2017-09-15T00:32:38.125Z,16
2017-09-15T00:33:40.513Z,16
2017-09-15T00:34:42.912Z,16
2017-09-15T00:35:45.307Z,15.9
2017-09-15T00:36:48.037Z,15.9
2017-09-15T00:37:50.428Z,15.9
2017-09-15T00:38:52.814Z,15.9
2017-09-15T00:39:55.251Z,15.9
2017-09-15T00:40:57.680Z,15.9
2017-09-15T00:42:00.419Z,15.9
2017-09-15T00:43:02.810Z,15.9
2017-09-15T00:44:05.218Z,15.9
2017-09-15T00:45:07.600Z,15.8
2017-09-15T00:46:09.999Z,15.8
2017-09-15T00:47:12.746Z,15.8
2017-09-15T00:48:15.137Z,15.8
2017-09-15T00:49:17.533Z,15.8
2017-09-15T00:50:19.928Z,15.8
2017-09-15T00:51:22.312Z,15.7
2017-09-15T00:52:24.702Z,15.7
2017-09-15T00:53:27.092Z,15.7
2017-09-15T00:54:29.484Z,15.7
2017-09-15T00:55:31.881Z,15.7
2017-09-15T00:56:34.278Z,15.7
2017-09-15T00:57:36.667Z,15.7
2017-09-15T00:58:39.052Z,15.7
2017-09-15T00:59:41.448Z,15.7
2017-09-15T01:00:43.842Z,15.7
2017-09-15T01:01:46.233Z,15.7
2017-09-15T01:02:48.622Z,15.7
2017-09-15T01:03:51.008Z,15.7
2017-09-15T01:04:53.404Z,15.7
2017-09-15T01:05:55.808Z,15.7
2017-09-15T01:06:58.195Z,15.7
2017-09-15T01:08:00.587Z,15.7
2017-09-15T01:09:02.984Z,15.7
2017-09-15T01:10:05.375Z,15.7
2017-09-15T01:11:07.764Z,15.7
2017-09-15T01:12:10.156Z,15.8
2017-09-15T01:13:12.549Z,15.8
2017-09-15T01:14:14.944Z,15.8
2017-09-15T01:15:17.336Z,15.8
2017-09-15T01:16:19.724Z,15.8
2017-09-15T01:17:22.116Z,15.8
2017-09-15T01:18:24.508Z,15.8
2017-09-15T01:19:26.897Z,15.8
2017-09-15T01:20:29.293Z,15.8
2017-09-15T01:21:31.690Z,15.8
2017-09-15T01:22:34.079Z,15.8
2017-09-15T01:23:36.473Z,15.8
2017-09-15T01:24:38.875Z,15.8
2017-09-15T01:25:42.280Z,15.8
2017-09-15T01:26:44.674Z,15.8
2017-09-15T01:27:47.066Z,15.8
2017-09-15T01:28:49.458Z,15.8
2017-09-15T01:29:51.855Z,15.7
2017-09-15T01:30:54.585Z,15.7
2017-09-15T01:31:56.968Z,15.7
2017-09-15T01:32:59.361Z,15.7
2017-09-15T01:34:01.758Z,15.7
2017-09-15T01:35:04.149Z,15.7
2017-09-15T01:36:06.544Z,15.7
2017-09-15T01:37:08.940Z,15.6
2017-09-15T01:38:11.331Z,15.6
2017-09-15T01:39:13.730Z,15.6
2017-09-15T01:40:16.114Z,15.6
2017-09-15T01:41:18.498Z,15.6
2017-09-15T01:42:20.895Z,15.6
2017-09-15T01:43:23.286Z,15.6
2017-09-15T01:44:25.675Z,15.6
2017-09-15T01:45:28.067Z,15.6
2017-09-15T01:46:30.458Z,15.6
2017-09-15T01:47:32.851Z,15.6
2017-09-15T01:48:35.249Z,15.5
2017-09-15T01:49:37.637Z,15.5
2017-09-15T01:50:40.034Z,15.5
2017-09-15T01:51:42.426Z,15.5
2017-09-15T01:52:44.821Z,15.5
2017-09-15T01:53:47.212Z,15.5
2017-09-15T01:54:49.609Z,15.5
2017-09-15T01:55:51.995Z,15.5
2017-09-15T01:56:54.389Z,15.5
2017-09-15T01:57:56.779Z,15.5
2017-09-15T01:58:59.179Z,15.5
2017-09-15T02:00:01.567Z,15.5
2017-09-15T02:01:03.975Z,15.6
2017-09-15T02:02:06.699Z,15.6
2017-09-15T02:03:09.089Z,15.6
2017-09-15T02:04:11.476Z,15.6
2017-09-15T02:05:13.883Z,15.6
2017-09-15T02:06:16.259Z,15.6
2017-09-15T02:07:18.664Z,15.6
2017-09-15T02:08:21.054Z,15.6
2017-09-15T02:09:23.440Z,15.6
2017-09-15T02:10:25.827Z,15.6
2017-09-15T02:11:28.270Z,15.6
2017-09-15T02:12:30.669Z,15.6
2017-09-15T02:13:33.070Z,15.6
2017-09-15T02:14:35.452Z,15.6
2017-09-15T02:15:37.847Z,15.6
2017-09-15T02:16:40.580Z,15.6
2017-09-15T02:17:42.971Z,15.7
2017-09-15T02:18:45.700Z,15.6
2017-09-15T02:19:48.095Z,15.6
2017-09-15T02:20:50.482Z,15.6
2017-09-15T02:21:52.872Z,15.6
2017-09-15T02:22:55.268Z,15.6
2017-09-15T02:23:57.660Z,15.7
2017-09-15T02:25:00.052Z,15.7
2017-09-15T02:26:02.438Z,15.7
2017-09-15T02:27:04.826Z,15.7
2017-09-15T02:28:07.901Z,15.7
2017-09-15T02:29:10.632Z,15.7
2017-09-15T02:30:13.020Z,15.7
2017-09-15T02:31:15.415Z,15.7
2017-09-15T02:32:17.806Z,15.7
2017-09-15T02:33:20.197Z,15.7
2017-09-15T02:34:22.592Z,15.7
2017-09-15T02:35:25.318Z,15.7
2017-09-15T02:36:28.051Z,15.7
2017-09-15T02:37:30.439Z,15.8
2017-09-15T02:38:32.826Z,15.7
2017-09-15T02:39:35.221Z,15.7
2017-09-15T02:40:37.618Z,15.7
2017-09-15T02:41:40.011Z,15.7
2017-09-15T02:42:42.397Z,15.8
2017-09-15T02:43:44.792Z,15.8
2017-09-15T02:44:47.183Z,15.8
2017-09-15T02:45:49.597Z,15.8
2017-09-15T02:46:51.973Z,15.8
2017-09-15T02:47:54.357Z,15.8
2017-09-15T02:48:56.749Z,15.8
2017-09-15T02:49:59.150Z,15.8
2017-09-15T02:51:01.533Z,15.8
2017-09-15T02:52:03.931Z,15.8
2017-09-15T02:53:06.322Z,15.8
2017-09-15T02:54:08.722Z,15.8
2017-09-15T02:55:11.101Z,15.8
2017-09-15T02:56:13.494Z,15.8
2017-09-15T02:57:15.886Z,15.8
2017-09-15T02:58:18.279Z,15.8
2017-09-15T02:59:20.675Z,15.8
2017-09-15T03:00:23.074Z,15.8
2017-09-15T03:01:25.465Z,15.8
2017-09-15T03:02:27.860Z,15.8
2017-09-15T03:03:30.253Z,15.8
2017-09-15T03:04:32.639Z,15.8
2017-09-15T03:05:35.029Z,15.8
2017-09-15T03:06:37.410Z,15.7
2017-09-15T03:07:39.807Z,15.8
2017-09-15T03:08:42.558Z,15.8
2017-09-15T03:09:44.946Z,15.7
2017-09-15T03:10:47.337Z,15.7
2017-09-15T03:11:49.739Z,15.7
2017-09-15T03:12:52.127Z,15.7
2017-09-15T03:13:54.531Z,15.7
2017-09-15T03:14:56.919Z,15.7
2017-09-15T03:15:59.307Z,15.7
2017-09-15T03:17:01.694Z,15.7
2017-09-15T03:18:04.090Z,15.7
2017-09-15T03:19:06.476Z,15.7
2017-09-15T03:20:08.866Z,15.7
2017-09-15T03:21:11.268Z,15.7
2017-09-15T03:22:13.659Z,15.7
2017-09-15T03:23:16.052Z,15.7
2017-09-15T03:24:18.443Z,15.7
2017-09-15T03:25:20.836Z,15.7
2017-09-15T03:26:23.227Z,15.6
2017-09-15T03:27:25.628Z,15.6
2017-09-15T03:28:28.010Z,15.6
2017-09-15T03:29:30.400Z,15.6
2017-09-15T03:30:32.796Z,15.6
2017-09-15T03:31:35.190Z,15.6
2017-09-15T03:32:37.574Z,15.6
2017-09-15T03:33:39.963Z,15.6
2017-09-15T03:34:42.351Z,15.6
2017-09-15T03:35:44.747Z,15.6
2017-09-15T03:36:47.140Z,15.6
2017-09-15T03:37:49.521Z,15.6
2017-09-15T03:38:51.919Z,15.6
2017-09-15T03:39:54.312Z,15.6
2017-09-15T03:40:56.707Z,15.6
2017-09-15T03:41:59.103Z,15.6
2017-09-15T03:43:01.852Z,15.6
2017-09-15T03:44:04.586Z,15.6
2017-09-15T03:45:06.984Z,15.6
2017-09-15T03:46:09.369Z,15.5
2017-09-15T03:47:11.755Z,15.5
2017-09-15T03:48:14.144Z,15.6
2017-09-15T03:49:16.538Z,15.5
2017-09-15T03:50:18.925Z,15.5
2017-09-15T03:51:21.317Z,15.5
2017-09-15T03:52:23.719Z,15.5
2017-09-15T03:53:26.111Z,15.5
2017-09-15T03:54:28.495Z,15.5
2017-09-15T03:55:30.886Z,15.5
2017-09-15T03:56:33.643Z,15.4
2017-09-15T03:57:36.035Z,15.4
2017-09-15T03:58:38.423Z,15.4
2017-09-15T03:59:41.144Z,15.4
2017-09-15T04:00:43.533Z,15.4
2017-09-15T04:01:46.272Z,15.4
2017-09-15T04:02:48.660Z,15.4
2017-09-15T04:03:51.047Z,15.4
2017-09-15T04:04:53.454Z,15.4
2017-09-15T04:05:55.839Z,15.4
2017-09-15T04:06:58.232Z,15.4
2017-09-15T04:08:00.625Z,15.4
2017-09-15T04:09:03.017Z,15.3
2017-09-15T04:10:05.412Z,15.4
2017-09-15T04:11:08.138Z,15.4
2017-09-15T04:12:10.522Z,15.3
2017-09-15T04:13:12.924Z,15.3
2017-09-15T04:14:15.661Z,15.3
2017-09-15T04:15:18.050Z,15.3
2017-09-15T04:16:20.439Z,15.3
2017-09-15T04:17:22.836Z,15.3
2017-09-15T04:18:25.576Z,15.3
2017-09-15T04:19:28.329Z,15.3
2017-09-15T04:20:30.728Z,15.3
2017-09-15T04:21:33.113Z,15.3
2017-09-15T04:22:35.499Z,15.3
2017-09-15T04:23:37.885Z,15.3
2017-09-15T04:24:40.615Z,15.2
2017-09-15T04:25:43.011Z,15.2
2017-09-15T04:26:45.398Z,15.2
2017-09-15T04:27:48.126Z,15.2
2017-09-15T04:28:50.523Z,15.2
2017-09-15T04:29:52.918Z,15.2
2017-09-15T04:30:55.313Z,15.2
2017-09-15T04:31:57.700Z,15.2
2017-09-15T04:33:00.090Z,15.2
2017-09-15T04:34:02.484Z,15.2
2017-09-15T04:35:04.873Z,15.2
2017-09-15T04:36:07.261Z,15.2
2017-09-15T04:37:09.655Z,15.2
2017-09-15T04:38:12.387Z,15.2
2017-09-15T04:39:14.793Z,15.2
2017-09-15T04:40:17.188Z,15.2
2017-09-15T04:41:19.577Z,15.2
2017-09-15T04:42:21.963Z,15.2
2017-09-15T04:43:24.358Z,15.1
2017-09-15T04:44:26.749Z,15.2
2017-09-15T04:45:29.144Z,15.1
2017-09-15T04:46:31.536Z,15.1
2017-09-15T04:47:33.960Z,15.1
2017-09-15T04:48:36.401Z,15.1
2017-09-15T04:49:38.845Z,15.1
2017-09-15T04:50:41.297Z,15.1
2017-09-15T04:51:43.736Z,15.1
2017-09-15T04:52:46.193Z,15.1
2017-09-15T04:53:48.664Z,15.1
2017-09-15T04:54:51.506Z,15.1
2017-09-15T04:55:54.298Z,15.1
2017-09-15T04:56:56.757Z,15.1
2017-09-15T04:57:59.211Z,15.1
2017-09-15T04:59:01.673Z,15.1
2017-09-15T05:00:04.118Z,15.1
2017-09-15T05:01:06.567Z,15.1
2017-09-15T05:02:09.372Z,15.1
2017-09-15T05:03:11.857Z,15.1
2017-09-15T05:04:14.301Z,15.1
2017-09-15T05:05:16.745Z,15.1
2017-09-15T05:06:19.190Z,15.1
2017-09-15T05:07:21.645Z,15.1
2017-09-15T05:08:24.090Z,15.1
2017-09-15T05:09:26.541Z,15.1
2017-09-15T05:10:28.988Z,15.1
2017-09-15T05:11:31.461Z,15.1
2017-09-15T05:12:33.908Z,15.1
2017-09-15T05:13:36.358Z,15.2
2017-09-15T05:14:38.804Z,15.1
2017-09-15T05:15:41.259Z,15.1
2017-09-15T05:16:43.716Z,15.1
2017-09-15T05:17:46.230Z,15.2
2017-09-15T05:18:48.683Z,15.2
2017-09-15T05:19:51.124Z,15.2
2017-09-15T05:20:53.582Z,15.1
2017-09-15T05:21:56.030Z,15.1
2017-09-15T05:22:58.479Z,15.1
2017-09-15T05:24:00.927Z,15.1
2017-09-15T05:25:03.380Z,15.1
2017-09-15T05:26:05.827Z,15.1
2017-09-15T05:27:08.294Z,15.1
2017-09-15T05:28:11.090Z,15.1
2017-09-15T05:29:13.536Z,15.1
2017-09-15T05:30:15.977Z,15.1
2017-09-15T05:31:18.424Z,15.1
2017-09-15T05:32:20.875Z,15.1
2017-09-15T05:33:23.326Z,15.1
2017-09-15T05:34:25.766Z,15.1
2017-09-15T05:35:28.218Z,15.2
2017-09-15T05:36:30.665Z,15.2
2017-09-15T05:37:33.120Z,15.2
2017-09-15T05:38:35.570Z,15.2
2017-09-15T05:39:38.026Z,15.2
2017-09-15T05:40:40.474Z,15.2
2017-09-15T05:41:42.938Z,15.2
2017-09-15T05:42:45.385Z,15.2
2017-09-15T05:43:47.830Z,15.2
2017-09-15T05:44:50.284Z,15.2
2017-09-15T05:45:52.736Z,15.2
2017-09-15T05:46:55.185Z,15.3
2017-09-15T05:47:57.655Z,15.3
2017-09-15T05:49:00.116Z,15.3
2017-09-15T05:50:02.578Z,15.3
2017-09-15T05:51:05.022Z,15.3
2017-09-15T05:52:07.480Z,15.3
2017-09-15T05:53:10.284Z,15.3
2017-09-15T05:54:12.739Z,15.3
2017-09-15T05:55:15.179Z,15.3
2017-09-15T05:56:17.622Z,15.3
2017-09-15T05:57:20.069Z,15.3
2017-09-15T05:58:22.540Z,15.3
2017-09-15T05:59:24.990Z,15.3
2017-09-15T06:00:27.429Z,15.4
2017-09-15T06:01:29.911Z,15.4
2017-09-15T06:02:32.358Z,15.4
2017-09-15T06:03:34.813Z,15.4
2017-09-15T06:04:37.261Z,15.5
2017-09-15T06:05:39.698Z,15.5
2017-09-15T06:06:42.170Z,15.5
2017-09-15T06:07:44.632Z,15.5
2017-09-15T06:08:47.081Z,15.5
2017-09-15T06:09:49.886Z,15.6
2017-09-15T06:10:52.676Z,15.6
2017-09-15T06:11:55.121Z,15.6
2017-09-15T06:12:57.579Z,15.6
2017-09-15T06:14:00.031Z,15.6
2017-09-15T06:15:02.469Z,15.6
2017-09-15T06:16:04.918Z,15.7
2017-09-15T06:17:07.366Z,15.7
2017-09-15T06:18:10.153Z,15.7
2017-09-15T06:19:12.622Z,15.7
2017-09-15T06:20:15.066Z,15.7
2017-09-15T06:21:17.516Z,15.8
2017-09-15T06:22:19.971Z,15.8
2017-09-15T06:23:22.417Z,15.8
2017-09-15T06:24:24.857Z,15.9
2017-09-15T06:25:27.308Z,15.9
2017-09-15T06:26:29.760Z,15.8
2017-09-15T06:27:32.209Z,15.9
2017-09-15T06:28:34.665Z,15.8
2017-09-15T06:29:37.111Z,15.9
2017-09-15T06:30:39.557Z,15.9
2017-09-15T06:31:42.015Z,15.9
2017-09-15T06:32:44.458Z,15.9
2017-09-15T06:33:46.920Z,16
2017-09-15T06:34:49.370Z,16
2017-09-15T06:35:51.822Z,16.1
2017-09-15T06:36:54.263Z,16
2017-09-15T06:37:57.055Z,16.1
2017-09-15T06:38:59.844Z,16.1
2017-09-15T06:40:02.296Z,16.1
2017-09-15T06:41:04.742Z,16.2
2017-09-15T06:42:07.179Z,16.2
2017-09-15T06:43:09.968Z,16.2
2017-09-15T06:44:12.417Z,16.2
2017-09-15T06:45:14.866Z,16.2
2017-09-15T06:46:17.336Z,16.2
2017-09-15T06:47:20.110Z,16.2
2017-09-15T06:48:22.551Z,16.2
2017-09-15T06:49:24.990Z,16.3
2017-09-15T06:50:27.446Z,16.2
2017-09-15T06:51:29.898Z,16.3
2017-09-15T06:52:32.338Z,16.3
2017-09-15T06:53:34.780Z,16.3
2017-09-15T06:54:37.225Z,16.3
2017-09-15T06:55:39.675Z,16.3
2017-09-15T06:56:42.122Z,16.3
2017-09-15T06:57:44.567Z,16.4
2017-09-15T06:58:47.019Z,16.4
2017-09-15T06:59:49.466Z,16.5
2017-09-15T07:00:51.905Z,16.5
2017-09-15T07:01:54.356Z,16.5
2017-09-15T07:02:56.796Z,16.6
2017-09-15T07:03:59.242Z,16.6
2017-09-15T07:05:01.697Z,16.6
2017-09-15T07:06:04.146Z,16.6
2017-09-15T07:07:06.594Z,16.7
2017-09-15T07:08:09.048Z,16.7
2017-09-15T07:09:11.507Z,16.7
2017-09-15T07:10:13.955Z,16.8
2017-09-15T07:11:16.402Z,16.8
2017-09-15T07:12:18.837Z,16.8
2017-09-15T07:13:21.288Z,16.8
2017-09-15T07:14:23.740Z,16.9
2017-09-15T07:15:26.190Z,16.9
2017-09-15T07:16:28.640Z,16.9
2017-09-15T07:17:31.093Z,17
2017-09-15T07:18:33.538Z,17
2017-09-15T07:19:35.991Z,17
2017-09-15T07:20:38.437Z,17
2017-09-15T07:21:40.893Z,17.1
2017-09-15T07:22:43.338Z,17.1
2017-09-15T07:23:45.776Z,17.1
2017-09-15T07:24:48.228Z,17.1
2017-09-15T07:25:50.681Z,17.1
2017-09-15T07:26:53.135Z,17.2
2017-09-15T07:27:55.584Z,17.2
2017-09-15T07:28:58.034Z,17.2
2017-09-15T07:30:00.481Z,17.2
2017-09-15T07:31:03.299Z,17.2
2017-09-15T07:32:05.742Z,17.2
2017-09-15T07:33:08.190Z,17.2
2017-09-15T07:34:10.643Z,17.2
2017-09-15T07:35:13.093Z,17.2
2017-09-15T07:36:15.550Z,17.2
2017-09-15T07:37:18.003Z,17.3
2017-09-15T07:38:20.781Z,17.3
2017-09-15T07:39:23.233Z,17.3
2017-09-15T07:40:25.685Z,17.3
2017-09-15T07:41:28.134Z,17.3
2017-09-15T07:42:30.580Z,17.3
2017-09-15T07:43:33.027Z,17.3
2017-09-15T07:44:35.824Z,17.4
2017-09-15T07:45:38.286Z,17.4
2017-09-15T07:46:40.731Z,17.4
2017-09-15T07:47:43.172Z,17.4
2017-09-15T07:48:45.622Z,17.5
2017-09-15T07:49:48.070Z,17.5
2017-09-15T07:50:50.520Z,17.6
2017-09-15T07:51:53.308Z,17.6
2017-09-15T07:52:55.756Z,17.7
2017-09-15T07:53:58.197Z,17.8
2017-09-15T07:55:00.651Z,17.8
2017-09-15T07:56:03.096Z,17.8
2017-09-15T07:57:05.549Z,17.8
2017-09-15T07:58:08.002Z,17.8
2017-09-15T07:59:10.449Z,17.9
2017-09-15T08:00:12.897Z,17.9
2017-09-15T08:01:15.699Z,17.9
2017-09-15T08:02:18.147Z,18
2017-09-15T08:03:20.602Z,18
2017-09-15T08:04:23.055Z,18.1
2017-09-15T08:05:25.499Z,18.2
2017-09-15T08:06:27.954Z,18.2
2017-09-15T08:07:30.402Z,18.2
2017-09-15T08:08:32.853Z,18.3
2017-09-15T08:09:35.311Z,18.4
2017-09-15T08:10:37.756Z,18.4
2017-09-15T08:11:40.207Z,18.4
2017-09-15T08:12:42.654Z,18.5
2017-09-15T08:13:45.105Z,18.5
2017-09-15T08:14:47.555Z,18.6
2017-09-15T08:15:50.015Z,18.6
2017-09-15T08:16:52.467Z,18.6
2017-09-15T08:17:54.922Z,18.7
2017-09-15T08:18:57.364Z,18.7
2017-09-15T08:19:59.812Z,18.7
2017-09-15T08:21:02.276Z,18.7
2017-09-15T08:22:04.723Z,18.7
2017-09-15T08:23:07.172Z,18.7
2017-09-15T08:24:09.619Z,18.8
2017-09-15T08:25:12.069Z,18.9
2017-09-15T08:26:14.523Z,18.9
2017-09-15T08:27:16.973Z,19
2017-09-15T08:28:19.417Z,19.1
2017-09-15T08:29:21.868Z,19.1
2017-09-15T08:30:24.323Z,19.1
2017-09-15T08:31:27.132Z,19.2
2017-09-15T08:32:29.578Z,19.1
2017-09-15T08:33:32.370Z,19.1
2017-09-15T08:34:34.821Z,19.1
2017-09-15T08:35:37.276Z,19
2017-09-15T08:36:39.732Z,19.1
2017-09-15T08:37:42.177Z,19.1
2017-09-15T08:38:44.640Z,19.1
2017-09-15T08:39:47.090Z,19.1
2017-09-15T08:40:49.543Z,19.2
2017-09-15T08:41:51.992Z,19.3
2017-09-15T08:42:54.441Z,19.4
2017-09-15T08:43:57.255Z,19.5
2017-09-15T08:44:59.716Z,19.6
2017-09-15T08:46:02.168Z,19.6
2017-09-15T08:47:04.616Z,19.8
2017-09-15T08:48:07.412Z,19.9
2017-09-15T08:49:10.214Z,20
2017-09-15T08:50:13.008Z,20.2
2017-09-15T08:51:15.461Z,20.4
2017-09-15T08:52:17.928Z,20.6
2017-09-15T08:53:20.382Z,20.6
2017-09-15T08:54:22.850Z,20.7
2017-09-15T08:55:25.300Z,20.7
2017-09-15T08:56:27.759Z,20.8
2017-09-15T08:57:30.209Z,20.9
2017-09-15T08:58:32.668Z,20.9
2017-09-15T08:59:35.114Z,21
2017-09-15T09:00:37.573Z,21
2017-09-15T09:01:40.014Z,21.1
2017-09-15T09:02:42.480Z,21.2
2017-09-15T09:03:44.929Z,21.2
2017-09-15T09:04:47.728Z,21.2
2017-09-15T09:05:50.176Z,21.2
2017-09-15T09:06:52.629Z,21.2
2017-09-15T09:07:55.083Z,21.3
2017-09-15T09:08:57.549Z,21.4
2017-09-15T09:10:00.012Z,21.5
2017-09-15T09:11:02.474Z,21.6
2017-09-15T09:12:05.266Z,21.6
2017-09-15T09:13:07.727Z,21.7
2017-09-15T09:14:10.183Z,21.9
2017-09-15T09:15:12.636Z,22
2017-09-15T09:16:15.100Z,22.1
2017-09-15T09:17:17.563Z,22.2
2017-09-15T09:18:20.008Z,22.2
2017-09-15T09:19:22.474Z,22.3
2017-09-15T09:20:24.929Z,22.4
2017-09-15T09:21:27.389Z,22.5
2017-09-15T09:22:29.851Z,22.6
2017-09-15T09:23:32.305Z,22.8
2017-09-15T09:24:35.101Z,22.9
2017-09-15T09:25:37.557Z,23
2017-09-15T09:26:40.007Z,23.2
2017-09-15T09:27:42.464Z,23.3
2017-09-15T09:28:44.926Z,23.4
2017-09-15T09:29:47.369Z,23.5
2017-09-15T09:30:49.821Z,23.6
2017-09-15T09:31:52.277Z,23.7
2017-09-15T09:32:54.731Z,23.7
2017-09-15T09:33:57.190Z,23.7
2017-09-15T09:34:59.644Z,23.8
2017-09-15T09:36:02.104Z,23.9
2017-09-15T09:37:04.555Z,23.9
2017-09-15T09:38:07.018Z,23.9
2017-09-15T09:39:09.472Z,23.9
2017-09-15T09:40:11.926Z,23.8
2017-09-15T09:41:14.380Z,23.7
2017-09-15T09:42:16.839Z,23.6
2017-09-15T09:43:19.294Z,23.6
2017-09-15T09:44:21.756Z,23.7
2017-09-15T09:45:24.210Z,23.8
2017-09-15T09:46:26.669Z,23.9
2017-09-15T09:47:29.126Z,24
2017-09-15T09:48:31.584Z,24.1
2017-09-15T09:49:34.375Z,24.1
2017-09-15T09:50:36.836Z,24.1
2017-09-15T09:51:39.291Z,24.1
2017-09-15T09:52:41.746Z,24.1
2017-09-15T09:53:44.211Z,24.1
2017-09-15T09:54:47.005Z,24
2017-09-15T09:55:49.458Z,23.9
2017-09-15T09:56:51.922Z,24
2017-09-15T09:57:54.377Z,24.1
2017-09-15T09:58:56.836Z,24.1
2017-09-15T09:59:59.300Z,24
2017-09-15T10:01:01.747Z,24
2017-09-15T10:02:04.543Z,24
2017-09-15T10:03:07.008Z,24
2017-09-15T10:04:09.466Z,24.1
2017-09-15T10:05:11.918Z,24.3
2017-09-15T10:06:14.372Z,24.3
2017-09-15T10:07:16.827Z,24.4
2017-09-15T10:08:19.292Z,24.4
2017-09-15T10:09:21.751Z,24.3
2017-09-15T10:10:24.196Z,24.2
2017-09-15T10:11:26.999Z,24
2017-09-15T10:12:29.464Z,23.9
2017-09-15T10:13:32.264Z,23.8
2017-09-15T10:14:34.730Z,23.7
2017-09-15T10:15:37.181Z,23.6
2017-09-15T10:16:39.976Z,23.6
2017-09-15T10:17:42.430Z,23.5
2017-09-15T10:18:44.882Z,23.5
2017-09-15T10:19:47.341Z,23.6
2017-09-15T10:20:49.800Z,23.7
2017-09-15T10:21:52.254Z,23.7
2017-09-15T10:22:54.723Z,23.7
2017-09-15T10:23:57.180Z,23.7
2017-09-15T10:24:59.632Z,23.7
2017-09-15T10:26:02.085Z,23.8
2017-09-15T10:27:04.545Z,23.9
2017-09-15T10:28:07.002Z,24
2017-09-15T10:29:09.463Z,24.1
2017-09-15T10:30:11.926Z,24.3
2017-09-15T10:31:14.392Z,24.4
2017-09-15T10:32:17.189Z,24.5
2017-09-15T10:33:19.651Z,24.5
2017-09-15T10:34:22.104Z,24.6
2017-09-15T10:35:24.557Z,24.5
2017-09-15T10:36:27.020Z,24.5
2017-09-15T10:37:29.472Z,24.6
2017-09-15T10:38:31.931Z,24.6
2017-09-15T10:39:34.732Z,24.5
2017-09-15T10:40:37.185Z,24.4
2017-09-15T10:41:39.651Z,24.3
2017-09-15T10:42:42.108Z,24.2
2017-09-15T10:43:44.909Z,24.1
2017-09-15T10:44:47.374Z,24.1
2017-09-15T10:45:50.188Z,24.1
2017-09-15T10:46:52.640Z,24.1
2017-09-15T10:47:55.101Z,24.1
2017-09-15T10:48:57.901Z,24
2017-09-15T10:50:00.356Z,24
2017-09-15T10:51:02.816Z,23.9
2017-09-15T10:52:05.268Z,23.9
2017-09-15T10:53:07.723Z,24
2017-09-15T10:54:10.521Z,24
2017-09-15T10:55:12.973Z,24.1
2017-09-15T10:56:15.419Z,24.1
2017-09-15T10:57:17.873Z,24.2
2017-09-15T10:58:20.335Z,24.3
2017-09-15T10:59:22.788Z,24.4
2017-09-15T11:00:25.245Z,24.5
2017-09-15T11:01:27.704Z,24.5
2017-09-15T11:02:30.161Z,24.5
2017-09-15T11:03:32.613Z,24.4
2017-09-15T11:04:35.413Z,24.3
2017-09-15T11:05:37.864Z,24.2
2017-09-15T11:06:40.322Z,24.1
2017-09-15T11:07:42.778Z,24
2017-09-15T11:08:45.227Z,24
2017-09-15T11:09:47.687Z,23.9
2017-09-15T11:10:50.139Z,23.8
2017-09-15T11:11:52.591Z,23.7
2017-09-15T11:12:55.046Z,23.6
2017-09-15T11:13:57.503Z,23.5
2017-09-15T11:14:59.949Z,23.4
2017-09-15T11:16:02.406Z,23.3
2017-09-15T11:17:04.875Z,23.3
2017-09-15T11:18:07.327Z,23.3
2017-09-15T11:19:10.119Z,23.2
2017-09-15T11:20:12.568Z,23.2
2017-09-15T11:21:15.020Z,23.2
2017-09-15T11:22:17.486Z,23.2
2017-09-15T11:23:19.939Z,23.3
2017-09-15T11:24:22.389Z,23.3
2017-09-15T11:25:24.854Z,23.3
2017-09-15T11:26:27.312Z,23.3
2017-09-15T11:27:29.740Z,23.3
2017-09-15T11:28:32.144Z,23.3
2017-09-15T11:29:34.549Z,23.3
2017-09-15T11:30:36.959Z,23.3
2017-09-15T11:31:39.372Z,23.4
2017-09-15T11:32:41.774Z,23.4
2017-09-15T11:33:44.175Z,23.5
2017-09-15T11:34:46.578Z,23.5
2017-09-15T11:35:48.977Z,23.7
2017-09-15T11:36:51.390Z,23.9
2017-09-15T11:37:54.134Z,24
2017-09-15T11:38:56.531Z,24.2
2017-09-15T11:39:58.946Z,24.4
2017-09-15T11:41:01.357Z,24.5
2017-09-15T11:42:03.762Z,24.5
2017-09-15T11:43:06.164Z,24.5
2017-09-15T11:44:08.569Z,24.4
2017-09-15T11:45:11.311Z,24.3
2017-09-15T11:46:13.707Z,24.2
2017-09-15T11:47:16.115Z,24.1
2017-09-15T11:48:18.518Z,24.1
2017-09-15T11:49:20.926Z,24
2017-09-15T11:50:23.335Z,23.9
2017-09-15T11:51:25.738Z,23.9
2017-09-15T11:52:28.136Z,24
2017-09-15T11:53:30.545Z,24.1
2017-09-15T11:54:32.944Z,24.3
2017-09-15T11:55:35.352Z,24.5
2017-09-15T11:56:38.090Z,24.7
2017-09-15T11:57:40.495Z,24.8
2017-09-15T11:58:42.898Z,24.9
2017-09-15T11:59:45.306Z,25
2017-09-15T12:00:47.717Z,25.1
2017-09-15T12:01:50.120Z,25.2
2017-09-15T12:02:52.523Z,25.3
2017-09-15T12:03:54.936Z,25.3
2017-09-15T12:04:57.332Z,25.2
2017-09-15T12:05:59.741Z,25
2017-09-15T12:07:02.133Z,24.9
2017-09-15T12:08:04.538Z,24.8
2017-09-15T12:09:06.951Z,24.8
2017-09-15T12:10:09.356Z,24.8
2017-09-15T12:11:11.762Z,24.9
2017-09-15T12:12:14.176Z,24.9
2017-09-15T12:13:16.568Z,25
2017-09-15T12:14:18.979Z,24.9
2017-09-15T12:15:21.389Z,24.8
2017-09-15T12:16:24.136Z,24.8
2017-09-15T12:17:26.545Z,24.7
2017-09-15T12:18:28.952Z,24.6
2017-09-15T12:19:31.360Z,24.5
2017-09-15T12:20:33.769Z,24.5
2017-09-15T12:21:36.172Z,24.5
2017-09-15T12:22:38.581Z,24.4
2017-09-15T12:23:40.991Z,24.4
2017-09-15T12:24:43.393Z,24.5
2017-09-15T12:25:45.791Z,24.6
2017-09-15T12:26:48.536Z,24.7
2017-09-15T12:27:50.937Z,24.8
2017-09-15T12:28:53.343Z,24.8
2017-09-15T12:29:55.749Z,24.8
2017-09-15T12:30:58.150Z,24.7
2017-09-15T12:32:00.555Z,24.6
2017-09-15T12:33:02.961Z,24.5
2017-09-15T12:34:05.363Z,24.4
2017-09-15T12:35:07.766Z,24.3
2017-09-15T12:36:10.167Z,24.2
2017-09-15T12:37:12.931Z,24.1
2017-09-15T12:38:15.336Z,24
2017-09-15T12:39:17.741Z,23.9
2017-09-15T12:40:20.144Z,23.8
2017-09-15T12:41:22.551Z,23.7
2017-09-15T12:42:24.953Z,23.6
2017-09-15T12:43:27.352Z,23.5
2017-09-15T12:44:29.754Z,23.5
2017-09-15T12:45:32.151Z,23.5
2017-09-15T12:46:34.567Z,23.6
2017-09-15T12:47:36.951Z,23.7
2017-09-15T12:48:39.361Z,23.7
2017-09-15T12:49:41.768Z,23.8
2017-09-15T12:50:44.178Z,23.8
2017-09-15T12:51:46.582Z,23.8
2017-09-15T12:52:48.990Z,23.8
2017-09-15T12:53:51.734Z,23.8
2017-09-15T12:54:54.147Z,23.7
2017-09-15T12:55:56.549Z,23.7
2017-09-15T12:56:59.294Z,23.6
2017-09-15T12:58:01.696Z,23.6
2017-09-15T12:59:04.094Z,23.5
2017-09-15T13:00:06.500Z,23.7
2017-09-15T13:01:08.898Z,23.8
2017-09-15T13:02:11.294Z,23.9
2017-09-15T13:03:13.697Z,24
2017-09-15T13:04:16.118Z,24.1
2017-09-15T13:05:18.518Z,24.1
2017-09-15T13:06:20.931Z,24.1
2017-09-15T13:07:23.337Z,24.2
2017-09-15T13:08:25.741Z,24.3
2017-09-15T13:09:28.152Z,24.4
2017-09-15T13:10:30.553Z,24.5
2017-09-15T13:11:32.949Z,24.5
2017-09-15T13:12:35.353Z,24.6
2017-09-15T13:13:37.774Z,24.7
2017-09-15T13:14:40.175Z,24.8
2017-09-15T13:15:42.575Z,24.8
2017-09-15T13:16:44.977Z,24.8
2017-09-15T13:17:47.408Z,24.8
2017-09-15T13:18:49.815Z,24.7
2017-09-15T13:19:52.225Z,24.5
2017-09-15T13:20:54.958Z,24.4
2017-09-15T13:21:57.358Z,24.3
2017-09-15T13:22:59.769Z,24.3
2017-09-15T13:24:02.168Z,24.2
2017-09-15T13:25:04.575Z,24.1
2017-09-15T13:26:06.985Z,24
2017-09-15T13:27:09.375Z,24.1
2017-09-15T13:28:11.790Z,24.1
2017-09-15T13:29:14.193Z,24.2
2017-09-15T13:30:16.595Z,24.3
2017-09-15T13:31:18.998Z,24.3
2017-09-15T13:32:21.412Z,24.4
2017-09-15T13:33:23.821Z,24.5
2017-09-15T13:34:26.605Z,24.6
2017-09-15T13:35:29.000Z,24.7
2017-09-15T13:36:31.403Z,24.8
2017-09-15T13:37:33.814Z,24.9
2017-09-15T13:38:36.229Z,25
2017-09-15T13:39:38.632Z,25.1
2017-09-15T13:40:41.036Z,25.1
2017-09-15T13:41:43.435Z,25.3
2017-09-15T13:42:45.852Z,25.3
2017-09-15T13:43:48.252Z,25.3
2017-09-15T13:44:50.671Z,25.3
2017-09-15T13:45:53.282Z,25.3
2017-09-15T13:46:55.679Z,25.3
2017-09-15T13:47:58.076Z,25.2
2017-09-15T13:49:00.487Z,25.1
2017-09-15T13:50:02.903Z,25.1
2017-09-15T13:51:05.312Z,25
2017-09-15T13:52:07.710Z,24.9
2017-09-15T13:53:10.122Z,24.8
2017-09-15T13:54:12.546Z,24.8
2017-09-15T13:55:14.947Z,24.8
2017-09-15T13:56:17.352Z,24.7